Time;durP1;ratioP1;P1;durP2;ratioP2;P2;SDS_P1;SDS_P2;PMS_P1;PMS_P2;Temp;Humidity;BMP_temperature;BMP_pressure;BME280_temperature;BME280_humidity;BME280_pressure;Samples;Min_cycle;Max_cycle;Signal;HPM_P1;HPM_P2
2024/01/06 00:00:18;;;;;;;25.58;13.73;;;;;;;;;;5048678;28;20037;-65
2024/01/06 00:02:44;;;;;;;30.77;16.13;;;;;;;;;;5049732;28;20037;-65
2024/01/06 00:05:09;;;;;;;28.30;14.98;;;;;;;;;;5035691;28;20036;-65
2024/01/06 00:07:34;;;;;;;25.63;15.05;;;;;;;;;;5043456;28;20037;-65
2024/01/06 00:10:00;;;;;;;30.63;16.95;;;;;;;;;;5047524;28;20385;-65
2024/01/06 00:12:25;;;;;;;34.25;17.25;;;;;;;;;;5049031;28;20037;-65
2024/01/06 00:14:51;;;;;;;31.13;17.20;;;;;;;;;;5044901;28;20378;-66
2024/01/06 00:17:16;;;;;;;31.35;17.25;;;;;;;;;;5037672;28;20029;-66
2024/01/06 00:19:42;;;;;;;24.95;13.80;;;;;;;;;;5029679;28;20029;-65
2024/01/06 00:22:08;;;;;;;29.45;16.17;;;;;;;;;;5049244;28;20369;-64
2024/01/06 00:24:33;;;;;;;26.02;14.98;;;;;;;;;;5053398;28;20053;-65
2024/01/06 00:26:59;;;;;;;23.55;13.65;;;;;;;;;;5054197;28;20473;-64
2024/01/06 00:29:24;;;;;;;26.02;15.05;;;;;;;;;;5053080;28;20377;-65
2024/01/06 00:31:49;;;;;;;24.70;13.57;;;;;;;;;;5052679;28;20040;-65
2024/01/06 00:34:15;;;;;;;25.48;14.50;;;;;;;;;;5051210;28;20561;-64
2024/01/06 00:36:41;;;;;;;25.52;14.05;;;;;;;;;;5053634;28;20051;-65
2024/01/06 00:39:06;;;;;;;25.13;13.57;;;;;;;;;;5051378;28;20104;-64
2024/01/06 00:41:31;;;;;;;26.60;12.95;;;;;;;;;;5053635;28;20029;-66
2024/01/06 00:43:57;;;;;;;24.20;13.50;;;;;;;;;;5051413;28;20479;-65
2024/01/06 00:46:22;;;;;;;26.70;13.35;;;;;;;;;;5051223;28;20040;-65
2024/01/06 00:48:47;;;;;;;26.17;14.05;;;;;;;;;;5050775;28;20035;-65
2024/01/06 00:51:13;;;;;;;26.75;14.13;;;;;;;;;;5052738;28;20041;-65
2024/01/06 00:53:38;;;;;;;26.92;14.18;;;;;;;;;;5052848;28;20040;-65
2024/01/06 00:56:04;;;;;;;24.67;12.85;;;;;;;;;;5050582;28;20025;-65
2024/01/06 00:58:29;;;;;;;26.17;13.60;;;;;;;;;;5050474;28;20091;-66
2024/01/06 01:00:54;;;;;;;26.55;14.18;;;;;;;;;;5034628;28;20640;-66
2024/01/06 01:03:20;;;;;;;24.42;12.95;;;;;;;;;;5053184;28;20033;-65
2024/01/06 01:05:45;;;;;;;26.42;14.40;;;;;;;;;;5052283;28;20334;-65
2024/01/06 01:08:10;;;;;;;25.92;13.32;;;;;;;;;;5037987;28;20067;-66
2024/01/06 01:10:36;;;;;;;25.70;13.65;;;;;;;;;;5053916;28;20033;-65
2024/01/06 01:13:01;;;;;;;27.42;13.45;;;;;;;;;;5052999;28;20033;-65
2024/01/06 01:15:27;;;;;;;24.35;13.27;;;;;;;;;;5053189;28;20036;-64
2024/01/06 01:17:52;;;;;;;27.30;13.82;;;;;;;;;;5052399;28;20068;-65
2024/01/06 01:20:17;;;;;;;25.60;14.05;;;;;;;;;;5032884;28;20035;-66
2024/01/06 01:22:43;;;;;;;25.20;13.10;;;;;;;;;;5037004;28;20082;-66
2024/01/06 01:25:08;;;;;;;24.60;13.27;;;;;;;;;;5052926;28;20049;-64
2024/01/06 01:27:34;;;;;;;29.40;14.93;;;;;;;;;;5053511;28;20029;-65
2024/01/06 01:30:00;;;;;;;28.75;13.90;;;;;;;;;;5051724;28;20033;-64
2024/01/06 01:32:25;;;;;;;25.95;13.20;;;;;;;;;;5034908;28;20470;-64
2024/01/06 01:34:50;;;;;;;27.23;13.68;;;;;;;;;;5052649;28;20075;-66
2024/01/06 01:37:16;;;;;;;27.52;14.00;;;;;;;;;;5052214;28;20025;-64
2024/01/06 01:39:41;;;;;;;28.65;14.23;;;;;;;;;;5051786;28;20086;-65
2024/01/06 01:42:07;;;;;;;28.13;14.30;;;;;;;;;;5052464;28;20077;-65
2024/01/06 01:44:32;;;;;;;28.17;14.90;;;;;;;;;;5053104;28;20025;-66
2024/01/06 01:46:58;;;;;;;26.50;14.45;;;;;;;;;;5052601;28;20044;-66
2024/01/06 01:49:24;;;;;;;32.45;14.70;;;;;;;;;;5051920;28;20461;-65
2024/01/06 01:51:50;;;;;;;28.38;14.32;;;;;;;;;;5052895;28;20033;-65
2024/01/06 01:54:15;;;;;;;29.27;15.05;;;;;;;;;;5051908;28;20474;-65
2024/01/06 01:56:42;;;;;;;27.25;14.52;;;;;;;;;;5052317;28;20037;-65
2024/01/06 01:59:12;;;;;;;26.50;14.35;;;;;;;;;;5052217;28;20033;-64
2024/01/06 02:01:39;;;;;;;27.57;14.83;;;;;;;;;;5052424;28;20029;-65
2024/01/06 02:04:04;;;;;;;27.35;14.05;;;;;;;;;;5051372;28;20029;-64
2024/01/06 02:06:30;;;;;;;26.77;13.93;;;;;;;;;;5052186;28;20371;-66
2024/01/06 02:08:55;;;;;;;28.88;13.85;;;;;;;;;;5053099;28;20055;-66
2024/01/06 02:11:20;;;;;;;27.77;14.57;;;;;;;;;;5033943;28;20035;-66
2024/01/06 02:13:46;;;;;;;27.45;14.15;;;;;;;;;;5052585;28;20461;-65
2024/01/06 02:16:11;;;;;;;27.70;14.50;;;;;;;;;;5051444;28;20082;-67
2024/01/06 02:18:36;;;;;;;26.27;12.32;;;;;;;;;;5052337;28;20025;-67
2024/01/06 02:21:02;;;;;;;22.02;11.20;;;;;;;;;;5049656;28;20074;-63
2024/01/06 02:23:29;;;;;;;20.77;10.43;;;;;;;;;;5046128;28;20033;-65
2024/01/06 02:25:54;;;;;;;18.75;10.20;;;;;;;;;;5052602;28;20486;-65
2024/01/06 02:28:20;;;;;;;19.67;9.73;;;;;;;;;;5051576;28;20526;-66
2024/01/06 02:30:45;;;;;;;16.75;8.60;;;;;;;;;;5051426;28;20045;-65
2024/01/06 02:33:11;;;;;;;18.13;8.75;;;;;;;;;;5050849;28;20025;-67
2024/01/06 02:35:36;;;;;;;18.25;8.93;;;;;;;;;;5052324;28;20036;-67
2024/01/06 02:38:02;;;;;;;17.92;8.75;;;;;;;;;;5052264;28;20465;-67
2024/01/06 02:40:27;;;;;;;16.17;8.32;;;;;;;;;;5047184;28;20033;-64
2024/01/06 02:42:53;;;;;;;17.15;7.93;;;;;;;;;;5052149;28;20120;-66
2024/01/06 02:45:18;;;;;;;18.58;8.65;;;;;;;;;;5050267;28;20041;-64
2024/01/06 02:47:43;;;;;;;15.82;8.15;;;;;;;;;;5051641;28;20104;-65
2024/01/06 02:50:09;;;;;;;16.88;8.07;;;;;;;;;;5048225;28;20108;-64
2024/01/06 02:52:34;;;;;;;18.23;8.45;;;;;;;;;;5052039;28;20424;-65
2024/01/06 02:55:00;;;;;;;17.13;8.43;;;;;;;;;;5050048;28;20037;-66
2024/01/06 02:57:27;;;;;;;16.17;8.48;;;;;;;;;;5049381;28;20037;-67
2024/01/06 02:59:53;;;;;;;18.25;8.45;;;;;;;;;;5048828;28;20071;-65
2024/01/06 03:02:18;;;;;;;17.50;8.70;;;;;;;;;;5047753;28;20454;-67
2024/01/06 03:04:43;;;;;;;16.63;8.15;;;;;;;;;;5049600;28;20043;-65
2024/01/06 03:07:09;;;;;;;16.23;8.00;;;;;;;;;;5035086;28;20041;-65
2024/01/06 03:09:34;;;;;;;16.73;8.38;;;;;;;;;;5050857;28;20033;-66
2024/01/06 03:11:59;;;;;;;18.40;8.45;;;;;;;;;;5050325;28;20060;-68
2024/01/06 03:14:25;;;;;;;16.60;8.32;;;;;;;;;;5042159;28;20021;-66
2024/01/06 03:16:50;;;;;;;14.93;7.30;;;;;;;;;;5051641;28;20021;-66
2024/01/06 03:19:16;;;;;;;15.98;6.97;;;;;;;;;;5029973;28;20036;-66
2024/01/06 03:21:41;;;;;;;16.17;7.75;;;;;;;;;;5050615;28;20466;-65
2024/01/06 03:24:08;;;;;;;18.58;8.25;;;;;;;;;;5050012;28;20056;-64
2024/01/06 03:26:34;;;;;;;14.85;7.03;;;;;;;;;;5051587;28;20036;-66
2024/01/06 03:28:59;;;;;;;13.52;6.57;;;;;;;;;;5032851;28;20105;-67
2024/01/06 03:31:25;;;;;;;16.23;7.25;;;;;;;;;;5049467;28;20040;-67
2024/01/06 03:33:51;;;;;;;15.43;7.22;;;;;;;;;;5049123;28;20025;-65
2024/01/06 03:36:16;;;;;;;17.27;8.35;;;;;;;;;;5048846;28;20115;-66
2024/01/06 03:38:42;;;;;;;20.48;8.20;;;;;;;;;;5051401;28;20115;-67
2024/01/06 03:41:07;;;;;;;16.58;8.00;;;;;;;;;;5048650;28;20381;-64
2024/01/06 03:43:33;;;;;;;17.13;7.93;;;;;;;;;;5050494;28;20037;-67
2024/01/06 03:46:00;;;;;;;15.18;6.65;;;;;;;;;;5048541;28;20060;-67
2024/01/06 03:48:25;;;;;;;15.38;6.97;;;;;;;;;;5047896;28;20040;-66
2024/01/06 03:50:51;;;;;;;16.10;7.30;;;;;;;;;;5049176;28;20024;-66
2024/01/06 03:53:16;;;;;;;14.52;7.13;;;;;;;;;;5049581;28;20061;-65
2024/01/06 03:55:42;;;;;;;15.82;7.55;;;;;;;;;;5049906;28;20056;-66
2024/01/06 03:58:07;;;;;;;15.80;7.65;;;;;;;;;;5052930;28;20381;-64
2024/01/06 04:00:33;;;;;;;17.55;7.40;;;;;;;;;;5053380;28;20124;-66
2024/01/06 04:02:58;;;;;;;15.10;7.05;;;;;;;;;;5054357;28;20037;-66
2024/01/06 04:05:23;;;;;;;16.50;7.80;;;;;;;;;;5052814;28;20052;-64
2024/01/06 04:07:49;;;;;;;15.73;7.40;;;;;;;;;;5032681;28;20499;-66
2024/01/06 04:10:14;;;;;;;15.75;7.47;;;;;;;;;;5053031;28;20033;-65
2024/01/06 04:12:40;;;;;;;16.95;7.88;;;;;;;;;;5051439;28;20032;-65
2024/01/06 04:15:05;;;;;;;15.85;7.50;;;;;;;;;;5053992;28;20035;-66
2024/01/06 04:17:31;;;;;;;17.48;7.78;;;;;;;;;;5051289;28;20104;-66
2024/01/06 04:19:56;;;;;;;16.98;8.18;;;;;;;;;;5053727;28;20108;-65
2024/01/06 04:22:21;;;;;;;18.60;8.07;;;;;;;;;;5049224;28;20094;-66
2024/01/06 04:24:47;;;;;;;16.77;7.68;;;;;;;;;;5051998;28;20072;-67
2024/01/06 04:27:12;;;;;;;16.63;7.75;;;;;;;;;;5049398;28;20037;-64
2024/01/06 04:29:39;;;;;;;15.38;7.55;;;;;;;;;;5034646;28;20025;-66
2024/01/06 04:32:04;;;;;;;16.20;7.82;;;;;;;;;;5049715;28;20033;-67
2024/01/06 04:34:30;;;;;;;16.92;7.95;;;;;;;;;;5050490;28;20098;-65
2024/01/06 04:36:55;;;;;;;17.67;7.50;;;;;;;;;;5052676;28;20033;-64
2024/01/06 04:39:21;;;;;;;16.10;7.38;;;;;;;;;;5051834;28;20029;-66
2024/01/06 04:41:46;;;;;;;16.92;7.63;;;;;;;;;;5054203;28;20364;-66
2024/01/06 04:44:11;;;;;;;18.58;8.18;;;;;;;;;;5049931;28;20040;-64
2024/01/06 04:46:37;;;;;;;15.88;7.45;;;;;;;;;;5044451;28;20513;-64
2024/01/06 04:49:02;;;;;;;16.45;7.75;;;;;;;;;;5051799;28;20044;-65
2024/01/06 04:51:28;;;;;;;17.95;8.13;;;;;;;;;;5052325;28;20045;-67
2024/01/06 04:53:53;;;;;;;17.52;7.93;;;;;;;;;;5053989;28;20041;-67
2024/01/06 04:56:18;;;;;;;17.27;8.07;;;;;;;;;;5051707;28;20033;-66
2024/01/06 04:58:44;;;;;;;17.65;8.63;;;;;;;;;;5054055;28;20029;-67
2024/01/06 05:01:10;;;;;;;20.08;9.27;;;;;;;;;;5051137;28;20481;-65
2024/01/06 05:03:35;;;;;;;17.92;8.70;;;;;;;;;;5051064;28;20037;-66
2024/01/06 05:06:00;;;;;;;19.92;9.15;;;;;;;;;;5048418;28;20078;-65
2024/01/06 05:08:26;;;;;;;18.70;8.32;;;;;;;;;;5033087;28;20048;-66
2024/01/06 05:10:53;;;;;;;22.77;9.82;;;;;;;;;;5039755;28;20039;-65
2024/01/06 05:13:19;;;;;;;21.40;9.85;;;;;;;;;;5048601;28;20112;-65
2024/01/06 05:15:44;;;;;;;20.10;9.13;;;;;;;;;;5051558;28;20128;-67
2024/01/06 05:18:09;;;;;;;21.05;9.70;;;;;;;;;;5033549;28;20028;-66
2024/01/06 05:20:35;;;;;;;22.13;9.85;;;;;;;;;;5034881;28;20866;-66
2024/01/06 05:23:00;;;;;;;20.13;8.98;;;;;;;;;;5053181;28;20040;-65
2024/01/06 05:25:26;;;;;;;23.55;9.07;;;;;;;;;;5052608;28;20044;-66
2024/01/06 05:27:51;;;;;;;19.63;10.13;;;;;;;;;;5051975;28;20036;-67
2024/01/06 05:30:18;;;;;;;19.35;9.25;;;;;;;;;;5042856;28;20151;-65
2024/01/06 05:32:43;;;;;;;19.98;8.85;;;;;;;;;;5053072;28;20469;-65
2024/01/06 05:35:09;;;;;;;20.90;9.48;;;;;;;;;;5053059;28;20032;-66
2024/01/06 05:37:34;;;;;;;20.38;9.18;;;;;;;;;;5052456;28;20033;-66
2024/01/06 05:40:02;;;;;;;20.90;9.50;;;;;;;;;;5053406;28;20037;-66
2024/01/06 05:42:28;;;;;;;19.48;9.57;;;;;;;;;;5034324;28;20033;-65
2024/01/06 05:44:54;;;;;;;18.90;9.02;;;;;;;;;;5047569;28;20099;-67
2024/01/06 05:47:19;;;;;;;20.23;8.82;;;;;;;;;;5051879;28;20040;-66
2024/01/06 05:49:45;;;;;;;20.40;9.05;;;;;;;;;;5053249;28;20112;-66
2024/01/06 05:52:10;;;;;;;21.27;9.18;;;;;;;;;;5034953;28;20033;-66
2024/01/06 05:54:36;;;;;;;21.00;8.85;;;;;;;;;;5051655;28;20639;-66
2024/01/06 05:57:01;;;;;;;20.80;9.25;;;;;;;;;;5052844;28;20036;-66
2024/01/06 05:59:26;;;;;;;20.58;8.80;;;;;;;;;;5052256;28;20063;-65
2024/01/06 06:01:52;;;;;;;19.95;9.02;;;;;;;;;;5052667;28;20036;-66
2024/01/06 06:04:18;;;;;;;18.17;8.50;;;;;;;;;;5033008;28;20037;-64
2024/01/06 06:06:44;;;;;;;20.88;8.90;;;;;;;;;;5032980;28;20029;-65
2024/01/06 06:09:10;;;;;;;21.05;9.18;;;;;;;;;;5040555;28;20381;-67
2024/01/06 06:11:35;;;;;;;22.23;8.93;;;;;;;;;;5051812;28;20709;-65
2024/01/06 06:14:02;;;;;;;19.30;8.48;;;;;;;;;;5052340;28;20041;-66
2024/01/06 06:16:28;;;;;;;22.35;9.27;;;;;;;;;;5034102;28;20029;-67
2024/01/06 06:18:53;;;;;;;18.52;9.05;;;;;;;;;;5052612;28;20124;-66
2024/01/06 06:21:19;;;;;;;18.83;8.65;;;;;;;;;;5051250;28;20028;-63
2024/01/06 06:23:44;;;;;;;18.75;8.70;;;;;;;;;;5051589;28;20143;-66
2024/01/06 06:26:11;;;;;;;20.45;8.52;;;;;;;;;;5052220;28;20094;-66
2024/01/06 06:28:37;;;;;;;20.92;9.32;;;;;;;;;;5050878;28;20028;-65
2024/01/06 06:31:03;;;;;;;20.77;9.02;;;;;;;;;;5052679;28;20124;-66
2024/01/06 06:33:28;;;;;;;24.38;10.30;;;;;;;;;;5033630;28;20083;-66
2024/01/06 06:35:54;;;;;;;22.90;9.57;;;;;;;;;;5051890;28;20481;-66
2024/01/06 06:38:21;;;;;;;20.00;9.07;;;;;;;;;;5051676;28;20446;-66
2024/01/06 06:40:47;;;;;;;22.75;8.95;;;;;;;;;;5052459;28;20032;-67
2024/01/06 06:43:13;;;;;;;23.35;10.32;;;;;;;;;;5051912;28;20099;-65
2024/01/06 06:45:38;;;;;;;23.92;10.13;;;;;;;;;;5050796;28;20058;-65
2024/01/06 06:48:04;;;;;;;24.02;10.27;;;;;;;;;;5052408;28;20041;-64
2024/01/06 06:50:30;;;;;;;23.70;10.57;;;;;;;;;;5051437;28;20064;-65
2024/01/06 06:52:55;;;;;;;23.45;10.00;;;;;;;;;;5052424;28;20100;-64
2024/01/06 06:55:20;;;;;;;24.85;10.00;;;;;;;;;;5050890;28;20025;-65
2024/01/06 06:57:46;;;;;;;22.33;9.88;;;;;;;;;;5052350;28;20071;-65
2024/01/06 07:00:11;;;;;;;23.58;10.32;;;;;;;;;;5052232;28;20040;-64
2024/01/06 07:02:37;;;;;;;27.25;10.55;;;;;;;;;;5032947;28;20033;-63
2024/01/06 07:05:06;;;;;;;21.60;9.57;;;;;;;;;;5044742;28;20025;-65
2024/01/06 07:07:32;;;;;;;25.52;10.15;;;;;;;;;;5051347;28;20045;-63
2024/01/06 07:09:57;;;;;;;26.75;10.13;;;;;;;;;;5032992;28;20035;-63
2024/01/06 07:12:23;;;;;;;23.42;10.05;;;;;;;;;;5032427;28;20040;-63
2024/01/06 07:14:48;;;;;;;25.38;9.65;;;;;;;;;;5051640;28;20472;-63
2024/01/06 07:17:14;;;;;;;23.85;9.23;;;;;;;;;;5051830;28;20029;-63
2024/01/06 07:19:39;;;;;;;22.13;8.70;;;;;;;;;;5047606;28;20017;-63
2024/01/06 07:22:05;;;;;;;24.00;8.80;;;;;;;;;;5036647;28;20033;-63
2024/01/06 07:24:30;;;;;;;21.02;7.65;;;;;;;;;;5044035;28;20064;-63
2024/01/06 07:26:56;;;;;;;22.25;7.57;;;;;;;;;;5039614;28;20029;-64
2024/01/06 07:29:21;;;;;;;16.23;7.03;;;;;;;;;;5039435;28;20052;-64
2024/01/06 07:31:47;;;;;;;15.90;6.82;;;;;;;;;;5042184;28;20025;-65
2024/01/06 07:34:12;;;;;;;17.45;7.10;;;;;;;;;;5042931;28;20496;-64
2024/01/06 07:36:39;;;;;;;16.90;6.80;;;;;;;;;;5034052;28;20017;-64
2024/01/06 07:39:05;;;;;;;17.77;6.85;;;;;;;;;;5043241;28;20025;-64
2024/01/06 07:41:32;;;;;;;18.88;6.80;;;;;;;;;;5046503;28;20139;-64
2024/01/06 07:43:57;;;;;;;16.38;6.80;;;;;;;;;;5047727;28;20032;-64
2024/01/06 07:46:23;;;;;;;19.02;6.68;;;;;;;;;;5047589;28;20371;-63
2024/01/06 07:48:48;;;;;;;18.55;7.25;;;;;;;;;;5044312;28;20050;-64
2024/01/06 07:51:14;;;;;;;18.17;6.95;;;;;;;;;;5055397;28;20029;-64
2024/01/06 07:53:39;;;;;;;18.95;6.57;;;;;;;;;;5054818;28;20115;-64
2024/01/06 07:56:05;;;;;;;24.70;8.05;;;;;;;;;;5054198;28;20029;-64
2024/01/06 07:58:31;;;;;;;22.98;7.82;;;;;;;;;;5054017;28;20037;-64
2024/01/06 08:00:57;;;;;;;23.38;7.82;;;;;;;;;;5053605;28;20068;-62
2024/01/06 08:03:22;;;;;;;23.45;8.55;;;;;;;;;;5054412;28;20079;-64
2024/01/06 08:05:47;;;;;;;23.13;8.52;;;;;;;;;;5034386;28;20029;-64
2024/01/06 08:08:16;;;;;;;23.63;8.18;;;;;;;;;;5051780;28;20039;-65
2024/01/06 08:10:42;;;;;;;27.20;9.65;;;;;;;;;;5049411;28;20032;-65
2024/01/06 08:13:07;;;;;;;24.30;9.20;;;;;;;;;;5054562;28;20033;-64
2024/01/06 08:15:33;;;;;;;23.65;9.30;;;;;;;;;;5053510;28;20032;-64
2024/01/06 08:17:58;;;;;;;26.75;9.27;;;;;;;;;;5054942;28;20021;-64
2024/01/06 08:20:23;;;;;;;26.52;9.75;;;;;;;;;;5036961;28;20072;-63
2024/01/06 08:22:49;;;;;;;23.77;9.07;;;;;;;;;;5054713;28;20497;-63
2024/01/06 08:25:17;;;;;;;24.35;9.40;;;;;;;;;;5054967;28;20370;-63
2024/01/06 08:27:42;;;;;;;20.92;8.77;;;;;;;;;;5054134;28;20122;-63
2024/01/06 08:30:08;;;;;;;20.88;8.82;;;;;;;;;;5054637;28;20083;-63
2024/01/06 08:32:34;;;;;;;20.15;8.07;;;;;;;;;;5053605;28;20044;-63
2024/01/06 08:34:59;;;;;;;21.58;9.02;;;;;;;;;;5054770;28;20075;-64
2024/01/06 08:37:24;;;;;;;19.10;7.82;;;;;;;;;;5054180;28;20371;-63
2024/01/06 08:39:50;;;;;;;17.10;7.10;;;;;;;;;;5054393;28;20025;-64
2024/01/06 08:42:15;;;;;;;18.77;7.65;;;;;;;;;;5054397;28;20389;-64
2024/01/06 08:44:41;;;;;;;13.32;5.70;;;;;;;;;;5052446;28;20029;-64
2024/01/06 08:47:06;;;;;;;14.75;6.10;;;;;;;;;;5054478;28;20437;-63
2024/01/06 08:49:31;;;;;;;16.45;7.07;;;;;;;;;;5053579;28;20079;-64
2024/01/06 08:51:58;;;;;;;18.17;7.07;;;;;;;;;;5054516;28;20045;-64
2024/01/06 08:54:23;;;;;;;16.05;6.82;;;;;;;;;;5054472;28;20531;-64
2024/01/06 08:56:48;;;;;;;15.57;6.22;;;;;;;;;;5053233;28;20029;-64
2024/01/06 08:59:14;;;;;;;14.40;6.20;;;;;;;;;;5053997;28;20036;-64
2024/01/06 09:01:39;;;;;;;16.77;6.10;;;;;;;;;;5053088;28;20029;-64
2024/01/06 09:04:06;;;;;;;13.25;5.05;;;;;;;;;;5054143;28;20033;-64
2024/01/06 09:06:32;;;;;;;12.15;4.68;;;;;;;;;;5053123;28;20041;-64
2024/01/06 09:08:57;;;;;;;11.07;4.75;;;;;;;;;;5054180;28;20056;-64
2024/01/06 09:11:22;;;;;;;9.30;4.80;;;;;;;;;;5053871;28;20071;-64
2024/01/06 09:13:48;;;;;;;9.18;4.45;;;;;;;;;;5053157;28;20588;-64
2024/01/06 09:16:13;;;;;;;10.98;4.85;;;;;;;;;;5036472;28;20032;-63
2024/01/06 09:18:39;;;;;;;11.80;5.10;;;;;;;;;;5053082;28;20127;-63
2024/01/06 09:21:05;;;;;;;10.50;5.03;;;;;;;;;;5053307;28;20029;-64
2024/01/06 09:23:31;;;;;;;11.52;5.30;;;;;;;;;;5051636;28;20104;-63
2024/01/06 09:25:57;;;;;;;12.88;5.65;;;;;;;;;;5053854;28;20078;-63
2024/01/06 09:28:23;;;;;;;11.68;5.75;;;;;;;;;;5035924;28;20075;-64
2024/01/06 09:30:49;;;;;;;14.65;5.95;;;;;;;;;;5051961;28;20436;-64
2024/01/06 09:33:15;;;;;;;13.45;5.25;;;;;;;;;;5035685;28;20035;-64
2024/01/06 09:35:42;;;;;;;12.45;5.15;;;;;;;;;;5048857;28;20489;-63
2024/01/06 09:38:07;;;;;;;14.65;5.78;;;;;;;;;;5034614;28;20032;-63
2024/01/06 09:40:34;;;;;;;12.57;5.55;;;;;;;;;;5038091;28;20025;-64
2024/01/06 09:42:59;;;;;;;13.10;5.20;;;;;;;;;;5053849;28;20035;-63
2024/01/06 09:45:25;;;;;;;17.88;6.35;;;;;;;;;;5052123;28;20112;-63
2024/01/06 09:47:51;;;;;;;14.48;6.75;;;;;;;;;;5034864;28;20035;-63
2024/01/06 09:50:20;;;;;;;17.42;6.82;;;;;;;;;;5052791;28;20078;-64
2024/01/06 09:52:53;;;;;;;17.02;7.03;;;;;;;;;;5032193;28;20033;-63
2024/01/06 09:55:24;;;;;;;16.55;7.00;;;;;;;;;;5051107;28;20032;-65
2024/01/06 09:57:49;;;;;;;14.98;7.50;;;;;;;;;;5049146;28;20195;-64
2024/01/06 10:00:16;;;;;;;17.92;7.78;;;;;;;;;;5052949;28;20496;-63
2024/01/06 10:02:43;;;;;;;17.17;7.90;;;;;;;;;;5050548;28;20037;-62
2024/01/06 10:05:09;;;;;;;24.48;9.65;;;;;;;;;;5033176;28;20432;-63
2024/01/06 10:07:35;;;;;;;21.40;8.15;;;;;;;;;;5037588;28;20037;-63
2024/01/06 10:10:00;;;;;;;21.55;9.10;;;;;;;;;;5052168;28;20036;-63
2024/01/06 10:12:26;;;;;;;19.98;9.05;;;;;;;;;;5052361;28;20047;-63
2024/01/06 10:14:52;;;;;;;23.35;10.23;;;;;;;;;;5050806;28;20029;-64
2024/01/06 10:17:21;;;;;;;22.58;9.13;;;;;;;;;;5052578;28;20025;-64
2024/01/06 10:19:48;;;;;;;23.65;10.60;;;;;;;;;;5051516;28;20381;-64
2024/01/06 10:22:14;;;;;;;25.40;10.23;;;;;;;;;;5052852;28;20029;-64
2024/01/06 10:24:39;;;;;;;24.90;10.18;;;;;;;;;;5051643;28;20045;-64
2024/01/06 10:27:05;;;;;;;23.23;10.27;;;;;;;;;;5052027;28;20485;-64
2024/01/06 10:29:31;;;;;;;24.48;10.23;;;;;;;;;;5050487;28;20033;-63
2024/01/06 10:31:57;;;;;;;24.88;10.07;;;;;;;;;;5050972;28;20036;-64
2024/01/06 10:34:23;;;;;;;23.80;10.15;;;;;;;;;;5051514;28;20095;-64
2024/01/06 10:36:50;;;;;;;22.42;9.98;;;;;;;;;;5050723;28;20040;-64
2024/01/06 10:39:15;;;;;;;26.33;9.95;;;;;;;;;;5034575;28;20059;-64
2024/01/06 10:41:42;;;;;;;23.27;10.27;;;;;;;;;;5049814;28;20465;-64
2024/01/06 10:44:10;;;;;;;20.35;8.88;;;;;;;;;;5042297;28;20492;-64
2024/01/06 10:46:36;;;;;;;17.77;8.27;;;;;;;;;;5048302;28;20032;-64
2024/01/06 10:49:04;;;;;;;24.23;9.52;;;;;;;;;;5032105;28;20065;-64
2024/01/06 10:51:33;;;;;;;21.88;10.02;;;;;;;;;;5038595;28;20461;-64
2024/01/06 10:54:01;;;;;;;22.42;9.73;;;;;;;;;;5051442;28;20021;-64
2024/01/06 10:56:26;;;;;;;28.55;10.95;;;;;;;;;;5051697;28;20082;-63
2024/01/06 10:58:53;;;;;;;25.02;10.27;;;;;;;;;;5050400;28;20033;-64
2024/01/06 11:01:24;;;;;;;24.13;10.38;;;;;;;;;;5051547;28;20485;-65
2024/01/06 11:03:49;;;;;;;22.13;9.77;;;;;;;;;;5051213;28;20059;-63
2024/01/06 11:06:17;;;;;;;22.60;10.38;;;;;;;;;;5051290;28;20040;-62
2024/01/06 11:08:59;;;;;;;24.73;9.60;;;;;;;;;;5049522;28;20033;-63
2024/01/06 11:11:25;;;;;;;21.95;9.52;;;;;;;;;;5051452;28;20359;-65
2024/01/06 11:13:50;;;;;;;21.88;10.05;;;;;;;;;;5045354;28;20495;-65
2024/01/06 11:16:36;;;;;;;21.00;9.07;;;;;;;;;;5031769;28;20351;-67
2024/01/06 11:19:01;;;;;;;21.17;9.50;;;;;;;;;;5040619;28;20029;-62
2024/01/06 11:21:28;;;;;;;22.92;9.30;;;;;;;;;;5031594;28;20125;-62
2024/01/06 11:24:06;;;;;;;23.08;9.70;;;;;;;;;;5030089;28;20155;-62
2024/01/06 11:26:31;;;;;;;23.23;9.70;;;;;;;;;;5050829;28;20025;-63
2024/01/06 11:28:58;;;;;;;23.75;9.65;;;;;;;;;;5050899;28;20449;-64
2024/01/06 11:31:28;;;;;;;18.50;7.97;;;;;;;;;;5051579;28;20033;-64
2024/01/06 11:33:54;;;;;;;21.10;9.07;;;;;;;;;;5034628;28;20095;-64
2024/01/06 11:36:20;;;;;;;21.52;9.23;;;;;;;;;;5047677;28;20033;-64
2024/01/06 11:38:50;;;;;;;21.45;9.00;;;;;;;;;;5050601;28;20033;-64
2024/01/06 11:41:49;;;;;;;25.25;9.85;;;;;;;;;;5051332;28;20060;-64
2024/01/06 11:44:19;;;;;;;23.25;9.63;;;;;;;;;;5044340;28;20380;-64
2024/01/06 11:46:45;;;;;;;22.40;9.18;;;;;;;;;;5047700;28;20029;-63
2024/01/06 11:49:12;;;;;;;23.50;10.20;;;;;;;;;;5049041;28;20393;-64
2024/01/06 11:51:37;;;;;;;26.48;10.23;;;;;;;;;;5050738;28;20035;-64
2024/01/06 11:54:03;;;;;;;23.45;10.07;;;;;;;;;;5050434;28;20032;-64
2024/01/06 11:56:29;;;;;;;27.60;10.18;;;;;;;;;;5050733;28;20033;-65
2024/01/06 11:58:55;;;;;;;24.92;9.88;;;;;;;;;;5048845;28;20029;-64
2024/01/06 12:01:20;;;;;;;23.58;10.13;;;;;;;;;;5051221;28;20033;-65
2024/01/06 12:03:46;;;;;;;24.00;10.02;;;;;;;;;;5049454;28;20083;-64
2024/01/06 12:06:12;;;;;;;26.48;10.82;;;;;;;;;;5033299;28;20052;-63
2024/01/06 12:08:37;;;;;;;23.83;10.68;;;;;;;;;;5050877;28;20025;-65
2024/01/06 12:11:04;;;;;;;24.25;10.15;;;;;;;;;;5050252;28;20037;-65
2024/01/06 12:13:30;;;;;;;28.77;10.48;;;;;;;;;;5051237;28;20465;-65
2024/01/06 12:15:56;;;;;;;24.67;10.13;;;;;;;;;;5050085;28;20087;-65
2024/01/06 12:18:22;;;;;;;28.77;10.98;;;;;;;;;;5049203;28;20041;-65
2024/01/06 12:20:47;;;;;;;24.13;9.75;;;;;;;;;;5053836;28;20028;-65
2024/01/06 12:23:23;;;;;;;25.80;10.60;;;;;;;;;;5045342;28;20099;-65
2024/01/06 12:25:49;;;;;;;24.13;9.43;;;;;;;;;;5038315;28;20471;-64
2024/01/06 12:28:15;;;;;;;23.05;9.75;;;;;;;;;;5054753;28;20120;-65
2024/01/06 12:30:40;;;;;;;24.42;10.35;;;;;;;;;;5053493;28;20037;-66
2024/01/06 12:33:06;;;;;;;23.48;9.27;;;;;;;;;;5036398;28;20025;-67
2024/01/06 12:35:31;;;;;;;24.08;8.88;;;;;;;;;;5042996;28;20061;-67
2024/01/06 12:37:57;;;;;;;24.42;9.48;;;;;;;;;;5033956;28;20189;-67
2024/01/06 12:40:22;;;;;;;19.08;8.65;;;;;;;;;;5049999;28;20029;-67
2024/01/06 12:42:47;;;;;;;21.67;8.98;;;;;;;;;;5053101;28;20068;-65
2024/01/06 12:45:15;;;;;;;20.20;8.40;;;;;;;;;;5054155;28;20025;-67
2024/01/06 12:47:42;;;;;;;18.33;7.97;;;;;;;;;;5053956;28;20029;-66
2024/01/06 12:50:08;;;;;;;21.85;9.00;;;;;;;;;;5051735;28;20037;-64
2024/01/06 12:52:33;;;;;;;20.38;8.80;;;;;;;;;;5042814;28;20485;-67
2024/01/06 12:54:59;;;;;;;20.85;9.23;;;;;;;;;;5053490;28;20126;-66
2024/01/06 12:57:25;;;;;;;19.60;8.95;;;;;;;;;;5053940;28;20112;-67
2024/01/06 12:59:50;;;;;;;19.33;7.88;;;;;;;;;;5053337;28;20024;-67
2024/01/06 13:02:16;;;;;;;18.98;7.88;;;;;;;;;;5054025;28;20432;-67
2024/01/06 13:04:41;;;;;;;18.02;7.30;;;;;;;;;;5052694;28;20420;-66
2024/01/06 13:07:06;;;;;;;15.75;6.40;;;;;;;;;;5053829;28;20116;-66
2024/01/06 13:09:32;;;;;;;19.17;7.28;;;;;;;;;;5053459;28;20036;-68
2024/01/06 13:12:00;;;;;;;16.92;7.28;;;;;;;;;;5042902;28;20029;-67
2024/01/06 13:14:29;;;;;;;19.80;7.75;;;;;;;;;;5034136;28;20041;-67
2024/01/06 13:16:55;;;;;;;20.13;8.75;;;;;;;;;;5037524;28;20051;-65
2024/01/06 13:19:21;;;;;;;21.15;8.00;;;;;;;;;;5037086;28;20025;-65
2024/01/06 13:21:47;;;;;;;21.83;8.60;;;;;;;;;;5033121;28;20040;-65
2024/01/06 13:24:12;;;;;;;22.88;8.52;;;;;;;;;;5033625;28;20437;-66
2024/01/06 13:26:37;;;;;;;23.65;8.88;;;;;;;;;;5047399;28;20116;-65
2024/01/06 13:29:03;;;;;;;20.85;8.10;;;;;;;;;;5052627;28;20860;-66
2024/01/06 13:31:29;;;;;;;21.65;7.78;;;;;;;;;;5039178;28;20056;-66
2024/01/06 13:33:55;;;;;;;20.45;7.93;;;;;;;;;;5037359;28;20112;-66
2024/01/06 13:36:20;;;;;;;18.05;7.63;;;;;;;;;;5053513;28;20532;-65
2024/01/06 13:38:46;;;;;;;24.38;7.60;;;;;;;;;;5052445;28;20116;-66
2024/01/06 13:41:12;;;;;;;17.50;7.60;;;;;;;;;;5050406;28;20047;-65
2024/01/06 13:43:37;;;;;;;23.63;8.52;;;;;;;;;;5046204;28;20043;-64
2024/01/06 13:46:03;;;;;;;22.73;8.13;;;;;;;;;;5049037;28;20119;-66
2024/01/06 13:48:28;;;;;;;17.85;7.03;;;;;;;;;;5046120;28;20033;-64
2024/01/06 13:50:54;;;;;;;20.70;8.18;;;;;;;;;;5019460;28;20032;-63
2024/01/06 13:53:19;;;;;;;22.75;8.07;;;;;;;;;;5045789;28;20029;-65
2024/01/06 13:55:45;;;;;;;23.63;8.90;;;;;;;;;;5052140;28;20091;-63
2024/01/06 13:58:10;;;;;;;18.92;7.60;;;;;;;;;;5052454;28;20044;-64
2024/01/06 14:00:36;;;;;;;24.42;7.88;;;;;;;;;;5047300;28;20393;-66
2024/01/06 14:03:03;;;;;;;24.17;8.55;;;;;;;;;;5051604;28;20085;-65
2024/01/06 14:05:28;;;;;;;25.25;8.10;;;;;;;;;;5052974;28;20461;-64
2024/01/06 14:07:54;;;;;;;22.83;8.30;;;;;;;;;;5051958;28;20091;-65
2024/01/06 14:10:19;;;;;;;22.40;8.73;;;;;;;;;;5037586;28;20378;-64
2024/01/06 14:12:45;;;;;;;25.33;8.85;;;;;;;;;;5033502;28;20090;-64
2024/01/06 14:15:11;;;;;;;22.55;8.32;;;;;;;;;;5052047;28;20110;-66
2024/01/06 14:17:37;;;;;;;21.60;8.52;;;;;;;;;;5051761;28;20044;-65